Escuta Aérea – Aeroporto Internacional de Fortaleza

METAR: 

SBFZ 201400Z 09015KT 9999 BKN025 30/21 Q1010

TAF: 

TAF TAF SBFZ 201000Z 2012/2112 09016KT 9999 SCT022 TX31/2015Z TN25/2108Z BECMG 2020/2022 08010KT RMK PEA

A escuta poderá ser executada automaticamente